Time;durP1;ratioP1;P1;durP2;ratioP2;P2;SDS_P1;SDS_P2;PMS_P1;PMS_P2;Temp;Humidity;BMP_temperature;BMP_pressure;BME280_temperature;BME280_humidity;BME280_pressure;Samples;Min_cycle;Max_cycle;Signal;HPM_P1;HPM_P2
2022/08/22 00:02:18;;;;;;;9.98;5.68;;;19.60;99.90;;;;;;4971355;28;20066;-69
2022/08/22 00:04:58;;;;;;;9.38;5.22;;;19.60;99.90;;;;;;4971727;28;20102;-67
2022/08/22 00:07:52;;;;;;;8.45;5.30;;;19.70;99.90;;;;;;4971621;28;20038;-73
2022/08/22 00:10:30;;;;;;;11.80;5.75;;;19.70;99.90;;;;;;4971365;28;20039;-68
2022/08/22 00:13:21;;;;;;;10.02;4.90;;;19.60;99.90;;;;;;4971431;28;20150;-63
2022/08/22 00:16:00;;;;;;;9.38;6.03;;;19.70;99.90;;;;;;4971488;28;20074;-72
2022/08/22 00:19:12;;;;;;;7.57;4.80;;;19.70;99.90;;;;;;4971526;28;20041;-73
2022/08/22 00:21:59;;;;;;;9.17;5.23;;;19.70;99.90;;;;;;4932981;29;20047;-70
2022/08/22 00:24:33;;;;;;;10.48;5.75;;;19.70;99.90;;;;;;4930067;29;20471;-73
2022/08/22 00:27:01;;;;;;;6.97;4.82;;;19.70;99.90;;;;;;4929506;29;20036;-74
2022/08/22 00:29:56;;;;;;;9.55;5.20;;;19.70;99.90;;;;;;4903494;29;20384;-73
2022/08/22 00:32:34;;;;;;;9.70;5.25;;;19.70;99.90;;;;;;4896331;29;20522;-68
2022/08/22 00:35:25;;;;;;;10.13;5.72;;;19.60;99.90;;;;;;4893601;29;20044;-73
2022/08/22 00:38:01;;;;;;;12.13;4.97;;;19.70;99.90;;;;;;4895008;29;20040;-72
2022/08/22 00:40:54;;;;;;;9.90;5.35;;;19.60;99.90;;;;;;4895166;29;20121;-69
2022/08/22 00:43:47;;;;;;;9.52;5.53;;;19.60;99.90;;;;;;4894730;29;20040;-73
2022/08/22 00:46:25;;;;;;;9.02;5.85;;;19.70;99.90;;;;;;4896961;29;20069;-73
2022/08/22 00:49:02;;;;;;;8.77;5.18;;;19.70;99.90;;;;;;4898566;29;20039;-70
2022/08/22 00:51:57;;;;;;;7.68;5.50;;;19.70;99.90;;;;;;4898845;29;20036;-74
2022/08/22 00:54:59;;;;;;;11.93;6.68;;;19.60;99.90;;;;;;4896327;29;20041;-74
2022/08/22 00:57:53;;;;;;;9.73;5.55;;;19.60;99.90;;;;;;4908503;29;20043;-73
2022/08/22 01:00:25;;;;;;;17.02;6.15;;;19.60;99.90;;;;;;4968336;28;20047;-73
2022/08/22 01:03:23;;;;;;;11.63;6.53;;;19.60;99.90;;;;;;4955270;28;20077;-74
2022/08/22 01:06:16;;;;;;;11.00;6.78;;;19.60;99.90;;;;;;4955139;28;20556;-73
2022/08/22 01:08:48;;;;;;;;;;;19.50;99.90;;;;;;4954046;29;20028;-74
2022/08/22 01:11:31;;;;;;;11.60;6.82;;;19.50;99.90;;;;;;4955290;28;19911;-74
2022/08/22 01:14:28;;;;;;;11.57;6.53;;;19.50;99.90;;;;;;4954985;28;20549;-73
2022/08/22 01:16:59;;;;;;;11.35;6.22;;;19.60;99.90;;;;;;4954967;28;20382;-74
2022/08/22 01:20:02;;;;;;;8.75;5.97;;;19.50;99.90;;;;;;4955057;28;20050;-74
2022/08/22 01:23:02;;;;;;;8.60;6.13;;;19.60;99.90;;;;;;4954877;28;20019;-73
2022/08/22 01:25:39;;;;;;;9.15;5.72;;;19.50;99.90;;;;;;4955090;28;20090;-74
2022/08/22 01:28:14;;;;;;;13.02;6.50;;;19.50;99.90;;;;;;4954947;28;20082;-74
2022/08/22 01:30:58;;;;;;;11.43;6.05;;;19.50;99.90;;;;;;4954931;28;20034;-72
2022/08/22 01:34:02;;;;;;;9.10;6.13;;;19.40;99.90;;;;;;4954999;28;20035;-74
2022/08/22 01:36:46;;;;;;;10.35;5.88;;;19.50;99.90;;;;;;4954704;29;20035;-74
2022/08/22 01:39:37;;;;;;;10.77;6.15;;;19.50;99.90;;;;;;4954602;28;20042;-73
2022/08/22 01:42:06;;;;;;;10.27;5.75;;;19.50;99.90;;;;;;4954451;28;20024;-74
2022/08/22 01:44:43;;;;;;;12.25;5.88;;;19.50;99.90;;;;;;4954265;28;20058;-72
2022/08/22 01:47:38;;;;;;;9.95;5.80;;;19.40;99.90;;;;;;4954725;28;20063;-72
2022/08/22 01:50:38;;;;;;;12.38;6.35;;;19.50;99.90;;;;;;4954006;28;20031;-73
2022/08/22 01:53:11;;;;;;;10.48;6.15;;;19.50;99.90;;;;;;4953162;29;20066;-73
2022/08/22 01:56:05;;;;;;;13.52;6.78;;;19.40;99.90;;;;;;4954757;28;20498;-72
2022/08/22 01:58:35;;;;;;;9.50;6.72;;;19.40;99.90;;;;;;4954829;28;20166;-74
2022/08/22 02:01:09;;;;;;;9.98;6.78;;;19.40;99.90;;;;;;4957625;28;20091;-66
2022/08/22 02:04:14;;;;;;;10.43;7.25;;;19.40;99.90;;;;;;4960803;28;20027;-71
2022/08/22 02:07:12;;;;;;;11.10;7.53;;;19.40;99.90;;;;;;4953745;29;20536;-63
2022/08/22 02:09:52;;;;;;;12.85;7.47;;;19.40;99.90;;;;;;4954154;28;20032;-73
2022/08/22 02:12:25;;;;;;;11.07;7.55;;;19.40;99.90;;;;;;4954414;28;20054;-73
2022/08/22 02:15:12;;;;;;;10.02;7.05;;;19.40;99.90;;;;;;4954394;29;20038;-74
2022/08/22 02:18:09;;;;;;;10.55;6.95;;;19.40;99.90;;;;;;4954322;28;20053;-74
2022/08/22 02:20:47;;;;;;;11.15;7.03;;;19.40;99.90;;;;;;4954046;28;20036;-73
2022/08/22 02:23:34;;;;;;;10.00;6.55;;;19.40;99.90;;;;;;4954319;28;20037;-74
2022/08/22 02:26:02;;;;;;;9.88;6.78;;;19.40;99.90;;;;;;4954442;28;20031;-74
2022/08/22 02:28:51;;;;;;;11.50;7.15;;;19.40;99.90;;;;;;4954482;28;20494;-74
2022/08/22 02:31:28;;;;;;;8.63;5.50;;;19.40;99.90;;;;;;4951304;29;20054;-74
2022/08/22 02:34:01;;;;;;;10.55;6.50;;;19.40;99.90;;;;;;4954064;28;20082;-73
2022/08/22 02:36:29;;;;;;;10.13;5.88;;;19.40;99.90;;;;;;4954383;28;20027;-62
2022/08/22 02:39:04;;;;;;;15.50;5.53;;;19.30;99.90;;;;;;4953805;28;20034;-71
2022/08/22 02:41:52;;;;;;;8.45;5.00;;;19.30;99.90;;;;;;4954216;28;20032;-74
2022/08/22 02:44:27;;;;;;;8.23;5.47;;;19.30;99.90;;;;;;4956399;28;20421;-74
2022/08/22 02:47:08;;;;;;;7.82;4.70;;;19.20;99.90;;;;;;4963104;28;20031;-66
2022/08/22 02:50:10;;;;;;;8.80;5.18;;;19.30;99.90;;;;;;4954158;29;20027;-74
2022/08/22 02:52:56;;;;;;;9.32;5.13;;;19.20;99.90;;;;;;4953714;29;20697;-73
2022/08/22 02:55:49;;;;;;;9.23;5.35;;;19.10;99.90;;;;;;4954436;28;20031;-73
2022/08/22 02:58:46;;;;;;;8.35;5.45;;;19.10;99.90;;;;;;4956316;28;20039;-73
2022/08/22 03:01:34;;;;;;;6.93;4.88;;;19.20;99.90;;;;;;4957332;28;20367;-72
2022/08/22 03:04:20;;;;;;;5.82;4.32;;;19.10;99.90;;;;;;4957602;28;20129;-73
2022/08/22 03:07:16;;;;;;;8.40;4.22;;;19.00;99.90;;;;;;4957484;28;20031;-73
2022/08/22 03:09:42;;;;;;;9.90;4.55;;;19.00;99.90;;;;;;4957284;28;20032;-74
2022/08/22 03:12:45;;;;;;;9.32;4.68;;;19.00;99.90;;;;;;4957311;28;20023;-72
2022/08/22 03:15:11;;;;;;;;;;;19.00;99.90;;;;;;4957265;28;20036;-74
2022/08/22 03:17:48;;;;;;;10.50;4.75;;;18.90;99.90;;;;;;4957246;28;19925;-73
2022/08/22 03:20:36;;;;;;;8.77;5.32;;;18.90;99.90;;;;;;4956435;28;20041;-73
2022/08/22 03:23:14;;;;;;;6.13;4.13;;;18.90;99.90;;;;;;4956803;28;20534;-73
2022/08/22 03:25:45;;;;;;;7.80;4.53;;;18.90;99.90;;;;;;4957191;28;20035;-74
2022/08/22 03:28:55;;;;;;;7.80;4.07;;;18.90;99.90;;;;;;4957000;28;20470;-74
2022/08/22 03:31:23;;;;;;;8.43;4.53;;;18.90;99.90;;;;;;4956657;28;20039;-74
2022/08/22 03:34:19;;;;;;;5.68;3.88;;;18.90;99.90;;;;;;4956285;28;20035;-73
2022/08/22 03:36:59;;;;;;;9.63;4.18;;;18.90;99.90;;;;;;4955966;28;20027;-73
2022/08/22 03:39:36;;;;;;;7.53;4.50;;;18.90;99.90;;;;;;4956380;28;20031;-73
2022/08/22 03:42:25;;;;;;;7.45;3.65;;;18.90;99.90;;;;;;4956215;28;20037;-74
2022/08/22 03:45:16;;;;;;;9.55;4.65;;;18.90;99.90;;;;;;4966899;28;20054;-73
2022/08/22 03:47:45;;;;;;;6.00;3.13;;;18.90;99.90;;;;;;4955755;28;20067;-74
2022/08/22 03:50:19;;;;;;;6.13;3.92;;;18.90;99.90;;;;;;4961619;28;20038;-74
2022/08/22 03:53:18;;;;;;;4.10;3.10;;;18.90;99.90;;;;;;4955081;29;20373;-72
2022/08/22 03:56:06;;;;;;;7.53;4.07;;;18.80;99.90;;;;;;4952950;28;20035;-71
2022/08/22 03:58:54;;;;;;;6.55;3.30;;;18.80;99.90;;;;;;4955596;29;20055;-70
2022/08/22 04:01:46;;;;;;;7.68;3.38;;;18.80;99.90;;;;;;4955475;28;20536;-74
2022/08/22 04:04:43;;;;;;;6.57;3.70;;;18.70;99.90;;;;;;4956414;28;20065;-73
2022/08/22 04:07:23;;;;;;;5.18;3.03;;;18.80;99.90;;;;;;4958093;28;20038;-74
2022/08/22 04:10:08;;;;;;;4.43;3.00;;;18.80;99.90;;;;;;4955732;28;20035;-73
2022/08/22 04:13:01;;;;;;;6.07;3.85;;;18.80;99.90;;;;;;4955123;28;20419;-73
2022/08/22 04:15:52;;;;;;;6.35;3.75;;;18.80;99.90;;;;;;4953411;28;20040;-71
2022/08/22 04:18:21;;;;;;;7.35;3.60;;;18.80;99.90;;;;;;4954844;28;20489;-74
2022/08/22 04:20:58;;;;;;;8.57;3.88;;;18.80;99.90;;;;;;4955250;28;20047;-72
2022/08/22 04:23:36;;;;;;;6.90;4.35;;;18.80;99.90;;;;;;4955521;28;20436;-73
2022/08/22 04:26:26;;;;;;;6.50;4.20;;;18.80;99.90;;;;;;4955769;28;20114;-75
2022/08/22 04:29:00;;;;;;;9.57;4.30;;;18.90;99.90;;;;;;4955363;28;20027;-73
2022/08/22 04:31:38;;;;;;;9.07;4.00;;;18.90;99.90;;;;;;4956015;28;20114;-74
2022/08/22 04:34:15;;;;;;;7.72;4.68;;;18.90;99.90;;;;;;4955506;28;20023;-73
2022/08/22 04:36:49;;;;;;;6.28;4.88;;;18.90;99.90;;;;;;4954907;28;20031;-74
2022/08/22 04:39:35;;;;;;;9.13;4.25;;;18.90;99.90;;;;;;4954892;28;20036;-73
2022/08/22 04:42:24;;;;;;;11.80;4.57;;;19.00;99.90;;;;;;4955278;28;20046;-73
2022/08/22 04:45:08;;;;;;;9.15;4.18;;;19.00;99.90;;;;;;4953630;28;20051;-73
2022/08/22 04:47:42;;;;;;;6.00;4.35;;;19.10;99.90;;;;;;4955222;28;20079;-74
2022/08/22 04:50:18;;;;;;;9.23;4.88;;;19.10;99.90;;;;;;4953609;29;20042;-74
2022/08/22 04:52:47;;;;;;;8.23;3.97;;;19.10;99.90;;;;;;4955407;28;20397;-73
2022/08/22 04:55:23;;;;;;;11.30;4.47;;;19.20;99.90;;;;;;4955201;28;20030;-74
2022/08/22 04:58:01;;;;;;;6.25;4.32;;;19.30;99.90;;;;;;4955039;28;20355;-74
2022/08/22 05:00:45;;;;;;;5.15;3.58;;;19.70;99.90;;;;;;4955359;28;20051;-73
2022/08/22 05:03:15;;;;;;;6.05;4.18;;;19.70;99.90;;;;;;4954592;28;20052;-71
2022/08/22 05:05:43;;;;;;;5.53;3.50;;;19.70;99.90;;;;;;4955132;28;20496;-72
2022/08/22 05:08:17;;;;;;;5.32;3.65;;;19.70;99.90;;;;;;4954610;28;20031;-73
2022/08/22 05:10:45;;;;;;;8.32;4.15;;;19.70;99.90;;;;;;4954569;28;20594;-74
2022/08/22 05:13:26;;;;;;;9.25;3.95;;;19.80;99.90;;;;;;4954712;28;20035;-73
2022/08/22 05:16:01;;;;;;;7.85;3.35;;;19.80;99.90;;;;;;4954754;28;20109;-73
2022/08/22 05:18:38;;;;;;;7.18;3.33;;;19.70;99.90;;;;;;4954608;28;20039;-72
2022/08/22 05:21:07;;;;;;;6.32;3.22;;;19.50;99.90;;;;;;4954582;28;20449;-73
2022/08/22 05:23:41;;;;;;;5.00;3.33;;;19.60;99.90;;;;;;4954278;28;20053;-73
2022/08/22 05:26:08;;;;;;;3.70;2.92;;;19.70;99.90;;;;;;4954724;28;20033;-73
2022/08/22 05:28:41;;;;;;;5.28;3.65;;;19.80;99.90;;;;;;4954629;28;20062;-73
2022/08/22 05:31:23;;;;;;;8.35;3.42;;;19.80;99.90;;;;;;4954480;28;20537;-73
2022/08/22 05:33:55;;;;;;;4.93;3.10;;;19.80;99.90;;;;;;4954150;28;20035;-73
2022/08/22 05:36:26;;;;;;;4.90;2.90;;;19.80;99.90;;;;;;4954434;28;20027;-73
2022/08/22 05:38:59;;;;;;;3.60;2.33;;;19.80;99.90;;;;;;4953888;28;20039;-73
2022/08/22 05:41:31;;;;;;;4.90;3.08;;;19.90;99.90;;;;;;4954456;28;20067;-73
2022/08/22 05:43:57;;;;;;;5.28;3.15;;;20.10;99.90;;;;;;4953913;28;20023;-72
2022/08/22 05:46:43;;;;;;;4.85;3.00;;;20.10;99.90;;;;;;4954954;28;20047;-74
2022/08/22 05:49:33;;;;;;;4.95;2.85;;;20.30;99.90;;;;;;4954229;28;20479;-73
2022/08/22 05:52:19;;;;;;;5.43;2.85;;;20.50;99.90;;;;;;4954090;28;20023;-73
2022/08/22 05:54:55;;;;;;;4.97;2.50;;;20.80;99.90;;;;;;4953012;28;20113;-73
2022/08/22 05:57:50;;;;;;;5.13;2.85;;;20.80;99.90;;;;;;4947240;28;20035;-73
2022/08/22 06:00:22;;;;;;;7.82;3.05;;;20.90;99.90;;;;;;4951752;28;20059;-74
2022/08/22 06:03:12;;;;;;;4.15;2.72;;;20.70;99.90;;;;;;4953425;28;20489;-73
2022/08/22 06:05:40;;;;;;;4.38;2.95;;;20.80;99.90;;;;;;4953774;28;20023;-74
2022/08/22 06:08:38;;;;;;;8.48;3.13;;;20.60;99.90;;;;;;4954239;28;20026;-73
2022/08/22 06:11:32;;;;;;;7.60;2.90;;;20.70;99.90;;;;;;4954417;28;20478;-73
2022/08/22 06:14:30;;;;;;;4.30;2.95;;;20.30;99.90;;;;;;4951253;28;20031;-74
2022/08/22 06:17:24;;;;;;;8.32;3.45;;;20.40;99.90;;;;;;4951946;29;20066;-71
2022/08/22 06:19:52;;;;;;;7.47;2.95;;;20.40;99.90;;;;;;4947685;29;20043;-73
2022/08/22 06:22:24;;;;;;;3.38;2.28;;;20.30;99.90;;;;;;4950951;29;20055;-72
2022/08/22 06:24:53;;;;;;;5.28;2.38;;;20.20;99.90;;;;;;4952205;29;20047;-73
2022/08/22 06:27:23;;;;;;;3.72;2.85;;;20.20;99.90;;;;;;4952165;29;20031;-73
2022/08/22 06:29:57;;;;;;;4.78;2.90;;;20.20;99.90;;;;;;4950588;28;20469;-73
2022/08/22 06:32:30;;;;;;;4.95;3.03;;;20.30;99.90;;;;;;4951640;28;20039;-72
2022/08/22 06:35:03;;;;;;;7.38;2.85;;;20.40;99.90;;;;;;4955067;29;20023;-73
2022/08/22 06:37:39;;;;;;;4.35;2.60;;;20.30;99.90;;;;;;4955366;29;20469;-71
2022/08/22 06:40:09;;;;;;;5.80;2.92;;;20.30;99.90;;;;;;4955413;29;20050;-73
2022/08/22 06:42:43;;;;;;;2.72;2.03;;;20.30;99.90;;;;;;4956328;28;20027;-73
2022/08/22 06:45:29;;;;;;;5.45;2.55;;;20.20;99.90;;;;;;4954972;29;20062;-73
2022/08/22 06:48:17;;;;;;;6.28;3.30;;;20.20;99.90;;;;;;4955093;28;20053;-73
2022/08/22 06:50:47;;;;;;;4.28;2.92;;;20.30;99.90;;;;;;4955446;29;20050;-73
2022/08/22 06:53:45;;;;;;;4.93;2.88;;;20.50;99.90;;;;;;4950136;29;20055;-73
2022/08/22 06:56:12;;;;;;;4.00;2.88;;;20.40;99.90;;;;;;4956724;28;20039;-73
2022/08/22 06:58:43;;;;;;;6.88;2.90;;;20.40;99.90;;;;;;4956720;29;20486;-73
2022/08/22 07:01:13;;;;;;;6.70;3.90;;;20.40;99.90;;;;;;4957361;28;20039;-73
2022/08/22 07:03:48;;;;;;;6.05;3.53;;;20.30;99.90;;;;;;4956484;28;20030;-72
2022/08/22 07:06:27;;;;;;;8.10;3.55;;;20.30;99.90;;;;;;4956448;28;20112;-73
2022/08/22 07:08:54;;;;;;;8.10;3.40;;;20.30;99.90;;;;;;4956163;28;20540;-73
2022/08/22 07:11:29;;;;;;;5.70;3.38;;;20.30;99.90;;;;;;4955966;28;20083;-73
2022/08/22 07:14:10;;;;;;;6.10;2.90;;;20.30;99.90;;;;;;4955997;28;20043;-70
2022/08/22 07:16:53;;;;;;;4.70;3.08;;;20.30;99.90;;;;;;4956840;28;20031;-73
2022/08/22 07:19:36;;;;;;;5.25;2.88;;;20.30;99.90;;;;;;4956421;28;20047;-72
2022/08/22 07:22:10;;;;;;;6.47;3.20;;;20.30;99.90;;;;;;4956023;28;20027;-72
2022/08/22 07:24:40;;;;;;;5.82;3.28;;;20.10;99.90;;;;;;4956672;28;20086;-71
2022/08/22 07:27:36;;;;;;;4.85;3.53;;;20.10;99.90;;;;;;4956166;28;20024;-73
2022/08/22 07:30:13;;;;;;;4.43;2.88;;;20.10;99.90;;;;;;4956765;28;20386;-68
2022/08/22 07:32:40;;;;;;;6.47;3.83;;;20.20;99.90;;;;;;4956989;28;20034;-73
2022/08/22 07:35:35;;;;;;;3.58;2.60;;;20.40;99.90;;;;;;4956741;28;20028;-73
2022/08/22 07:38:16;;;;;;;5.40;2.72;;;20.40;99.90;;;;;;4955876;28;20050;-72
2022/08/22 07:40:58;;;;;;;5.22;2.65;;;20.50;99.90;;;;;;4955928;28;20043;-73
2022/08/22 07:43:48;;;;;;;7.25;3.05;;;20.40;99.90;;;;;;4956520;28;20027;-73
2022/08/22 07:46:29;;;;;;;4.85;2.75;;;20.50;99.90;;;;;;4956506;28;20505;-73
2022/08/22 07:48:59;;;;;;;5.32;2.90;;;20.50;99.90;;;;;;4956446;28;20027;-73
2022/08/22 07:51:35;;;;;;;5.88;2.60;;;20.60;99.90;;;;;;4956311;28;20078;-74
2022/08/22 07:54:08;;;;;;;5.07;3.10;;;20.50;99.90;;;;;;4956447;28;20090;-72
2022/08/22 07:56:45;;;;;;;3.00;2.22;;;20.50;99.90;;;;;;4955010;28;20028;-70
2022/08/22 07:59:16;;;;;;;5.30;2.10;;;20.60;99.90;;;;;;4956021;28;20031;-73
2022/08/22 08:01:52;;;;;;;4.15;2.33;;;20.60;99.90;;;;;;4951601;29;20031;-73
2022/08/22 08:04:25;;;;;;;3.70;2.53;;;20.60;99.90;;;;;;4955995;28;20109;-72
2022/08/22 08:06:54;;;;;;;3.45;2.28;;;20.60;99.90;;;;;;4956048;28;20031;-73
2022/08/22 08:09:20;;;;;;;4.75;2.70;;;20.50;99.90;;;;;;4956117;28;20023;-69
2022/08/22 08:11:50;;;;;;;3.33;2.10;;;20.40;99.90;;;;;;4956192;28;20289;-73
2022/08/22 08:14:18;;;;;;;5.53;2.42;;;20.50;99.90;;;;;;4955445;28;20483;-73
2022/08/22 08:17:12;;;;;;;4.53;2.85;;;20.60;99.90;;;;;;4955691;28;20439;-71
2022/08/22 08:19:40;;;;;;;3.63;2.60;;;20.50;99.90;;;;;;4952790;28;20391;-72
2022/08/22 08:22:06;;;;;;;3.17;2.17;;;20.50;99.90;;;;;;4955696;28;20027;-73
2022/08/22 08:24:37;;;;;;;5.22;2.25;;;20.60;99.90;;;;;;4956041;28;20074;-71
2022/08/22 08:30:01;;;;;;;5.63;2.33;;;20.50;99.90;;;;;;4958467;28;20435;-72
2022/08/22 08:32:32;;;;;;;2.72;2.42;;;20.40;99.90;;;;;;4955820;28;20042;-74
2022/08/22 08:35:07;;;;;;;7.97;2.63;;;20.50;99.90;;;;;;4955040;28;20027;-73
2022/08/22 08:37:48;;;;;;;6.50;2.53;;;20.50;99.90;;;;;;4952840;28;20075;-74
2022/08/22 08:40:37;;;;;;;4.78;2.67;;;20.50;99.90;;;;;;4951636;28;20050;-73
2022/08/22 08:43:44;;;;;;;6.38;3.03;;;20.50;99.90;;;;;;4950183;29;20482;-73
2022/08/22 08:46:29;;;;;;;5.80;2.88;;;20.50;99.90;;;;;;4951947;28;20494;-68
2022/08/22 08:49:22;;;;;;;3.85;3.22;;;20.50;99.90;;;;;;4951124;28;20035;-74
2022/08/22 08:51:51;;;;;;;5.60;2.08;;;20.50;99.90;;;;;;4951653;29;20039;-73
2022/08/22 08:54:37;;;;;;;4.85;2.13;;;20.40;99.90;;;;;;4950512;28;20495;-73
2022/08/22 08:57:22;;;;;;;3.95;2.38;;;20.30;99.90;;;;;;4950623;29;20039;-72
2022/08/22 09:00:14;;;;;;;6.95;3.00;;;20.20;99.90;;;;;;4951783;28;20047;-74
2022/08/22 09:03:06;;;;;;;2.67;1.92;;;20.10;99.90;;;;;;4952700;28;20036;-73
2022/08/22 09:05:46;;;;;;;3.70;2.30;;;20.20;99.90;;;;;;4952570;29;20057;-75
2022/08/22 09:08:30;;;;;;;4.00;2.10;;;20.20;99.90;;;;;;4952438;29;20818;-73
2022/08/22 09:11:13;;;;;;;5.30;2.50;;;20.20;99.90;;;;;;4951443;28;20522;-73
2022/08/22 09:14:00;;;;;;;3.80;2.75;;;20.30;99.90;;;;;;4950530;29;20130;-73
2022/08/22 09:16:29;;;;;;;5.07;2.50;;;20.40;99.90;;;;;;4951485;29;20047;-74
2022/08/22 09:19:01;;;;;;;5.43;3.10;;;20.40;99.90;;;;;;4949918;29;20167;-74
2022/08/22 09:22:04;;;;;;;4.82;2.65;;;20.40;99.90;;;;;;4952516;28;20050;-73
2022/08/22 09:24:52;;;;;;;8.68;3.30;;;20.70;99.90;;;;;;4971454;28;20073;-74
2022/08/22 09:27:32;;;;;;;4.43;2.55;;;20.80;99.90;;;;;;4971771;28;20473;-71
2022/08/22 09:30:07;;;;;;;4.78;3.05;;;20.80;99.90;;;;;;4971473;28;20027;-73
2022/08/22 09:32:43;;;;;;;3.53;2.55;;;20.90;99.90;;;;;;4969037;28;20031;-74
2022/08/22 09:35:22;;;;;;;4.07;2.78;;;20.90;99.90;;;;;;4968705;28;20039;-73
2022/08/22 09:38:25;;;;;;;4.28;2.83;;;21.00;99.90;;;;;;4970340;28;20421;-74
2022/08/22 09:41:30;;;;;;;4.65;2.70;;;21.10;99.90;;;;;;4971111;28;20053;-74
2022/08/22 09:44:02;;;;;;;7.45;3.17;;;21.20;99.90;;;;;;4968744;28;20062;-75
2022/08/22 09:46:54;;;;;;;4.50;2.75;;;21.30;99.90;;;;;;4971476;28;20053;-73
2022/08/22 09:49:20;;;;;;;8.15;2.78;;;21.20;99.90;;;;;;4970395;28;20035;-72
2022/08/22 09:52:27;;;;;;;9.77;3.05;;;21.20;99.90;;;;;;4971474;28;20417;-74
2022/08/22 09:55:11;;;;;;;4.88;2.75;;;21.30;99.90;;;;;;4968256;28;21559;-74
2022/08/22 09:57:51;;;;;;;7.28;2.70;;;21.30;99.90;;;;;;4970181;28;20110;-73
2022/08/22 10:00:33;;;;;;;7.65;2.80;;;21.30;99.90;;;;;;4966080;28;20067;-74
2022/08/22 10:03:01;;;;;;;2.65;2.28;;;21.40;99.90;;;;;;4956326;28;20019;-75
2022/08/22 10:06:04;;;;;;;7.47;2.58;;;21.40;99.90;;;;;;4953693;28;20047;-75
2022/08/22 10:09:02;;;;;;;3.40;2.65;;;21.40;99.90;;;;;;4935201;29;20090;-71
2022/08/22 10:11:38;;;;;;;5.43;3.00;;;21.30;99.90;;;;;;4925098;29;20097;-70
2022/08/22 10:14:14;;;;;;;4.93;2.40;;;21.40;99.90;;;;;;4935751;29;20148;-74
2022/08/22 10:17:01;;;;;;;3.67;2.65;;;21.30;99.90;;;;;;4935229;29;20314;-74
2022/08/22 10:19:42;;;;;;;5.97;2.53;;;21.60;99.90;;;;;;4933803;29;20043;-72
2022/08/22 10:22:18;;;;;;;7.55;3.40;;;21.70;99.90;;;;;;4932675;29;20391;-73
2022/08/22 10:24:57;;;;;;;4.32;2.45;;;21.90;99.90;;;;;;4934890;29;20039;-74
2022/08/22 10:27:34;;;;;;;5.18;2.92;;;22.20;99.90;;;;;;4934791;29;20036;-65
2022/08/22 10:30:09;;;;;;;3.92;2.60;;;;;;;;;;4934407;29;20469;-73
2022/08/22 10:32:48;;;;;;;5.97;2.72;;;22.70;99.90;;;;;;4935820;29;20034;-71
2022/08/22 10:35:54;;;;;;;4.85;2.83;;;22.70;99.90;;;;;;4936764;29;20071;-72
2022/08/22 10:38:20;;;;;;;6.80;3.10;;;22.80;99.90;;;;;;4933479;29;20047;-73
2022/08/22 10:41:14;;;;;;;3.33;2.47;;;22.80;99.90;;;;;;4934371;29;20035;-74
2022/08/22 10:44:06;;;;;;;4.60;2.35;;;22.90;99.90;;;;;;4933834;29;20501;-73
2022/08/22 10:46:37;;;;;;;5.38;2.65;;;22.90;99.90;;;;;;4934243;29;20084;-74
2022/08/22 10:49:12;;;;;;;4.72;2.38;;;23.00;99.90;;;;;;4934207;29;20126;-73
2022/08/22 10:51:45;;;;;;;3.13;2.25;;;;;;;;;;4934433;29;20039;-73
2022/08/22 10:54:26;;;;;;;3.25;2.25;;;23.30;99.90;;;;;;4934835;29;20510;-74
2022/08/22 10:57:27;;;;;;;3.35;2.40;;;23.30;99.90;;;;;;4934886;29;20043;-74
2022/08/22 11:00:06;;;;;;;5.70;2.33;;;23.60;99.90;;;;;;4896931;29;20081;-74
2022/08/22 11:02:41;;;;;;;4.45;2.47;;;23.60;99.90;;;;;;4897574;29;20068;-75
2022/08/22 11:05:36;;;;;;;5.05;2.72;;;23.60;99.90;;;;;;4897095;29;20044;-73
2022/08/22 11:08:35;;;;;;;3.25;2.25;;;23.80;99.90;;;;;;4897323;29;20052;-74
2022/08/22 11:11:19;;;;;;;3.85;2.60;;;23.70;99.90;;;;;;4895799;29;20033;-71
2022/08/22 11:13:57;;;;;;;7.43;3.20;;;23.60;99.90;;;;;;4888390;29;20140;-74
2022/08/22 11:16:23;;;;;;;8.95;3.40;;;23.80;99.90;;;;;;4893689;29;20032;-74
2022/08/22 11:19:25;;;;;;;4.03;3.08;;;23.60;99.90;;;;;;4893641;29;20499;-74
2022/08/22 11:22:15;;;;;;;7.70;3.28;;;23.50;99.90;;;;;;4914427;29;20044;-74
2022/08/22 11:24:59;;;;;;;5.20;3.03;;;23.40;99.90;;;;;;4914051;29;20040;-74
2022/08/22 11:27:47;;;;;;;5.53;3.05;;;23.40;99.90;;;;;;4896692;29;20035;-75
2022/08/22 11:30:24;;;;;;;6.80;4.00;;;23.60;99.90;;;;;;4913817;29;20046;-74
2022/08/22 11:33:36;;;;;;;4.45;2.65;;;23.50;99.90;;;;;;4916161;29;20194;-74
2022/08/22 11:36:23;;;;;;;4.80;3.45;;;23.60;99.90;;;;;;4919369;29;20036;-75
2022/08/22 11:39:23;;;;;;;6.05;3.10;;;23.60;99.90;;;;;;4956409;28;20042;-74
2022/08/22 11:42:00;;;;;;;6.15;4.18;;;23.70;99.90;;;;;;4959668;28;20034;-74
2022/08/22 11:44:52;;;;;;;5.70;4.45;;;23.90;99.90;;;;;;4957515;28;20047;-74
2022/08/22 11:47:24;;;;;;;8.73;4.72;;;24.10;99.90;;;;;;4934763;29;20054;-74
2022/08/22 11:49:57;;;;;;;5.82;4.03;;;24.10;99.90;;;;;;4934086;29;20083;-75
2022/08/22 11:52:29;;;;;;;4.65;3.50;;;24.30;99.90;;;;;;4935206;29;20114;-74
2022/08/22 11:55:06;;;;;;;;;;;24.10;99.90;;;;;;4935471;29;20023;-75
2022/08/22 11:57:45;;;;;;;14.45;7.13;;;24.10;99.90;;;;;;4934078;29;19911;-72
2022/08/22 12:00:17;;;;;;;9.07;4.93;;;24.20;99.90;;;;;;4933595;29;20067;-74
2022/08/22 12:03:18;;;;;;;6.70;4.45;;;24.10;99.90;;;;;;4933271;29;20123;-74
2022/08/22 12:05:49;;;;;;;9.52;4.70;;;23.80;99.90;;;;;;4875795;29;20055;-74
2022/08/22 12:08:28;;;;;;;7.28;4.72;;;23.80;99.90;;;;;;4878008;29;20037;-73
2022/08/22 12:11:08;;;;;;;7.40;4.72;;;23.90;99.90;;;;;;4878246;29;20060;-72
2022/08/22 12:14:00;;;;;;;6.07;3.90;;;23.90;99.90;;;;;;4866248;29;20186;-74
2022/08/22 12:16:44;;;;;;;5.68;4.03;;;23.90;99.90;;;;;;4877829;29;20045;-74
2022/08/22 12:19:31;;;;;;;5.35;3.72;;;24.00;99.90;;;;;;4878281;29;20531;-75
2022/08/22 12:22:22;;;;;;;5.13;3.58;;;23.90;99.90;;;;;;4873708;29;20343;-74
2022/08/22 12:25:35;;;;;;;7.97;3.80;;;23.80;99.90;;;;;;4816796;29;20471;-74
2022/08/22 12:28:14;;;;;;;;;;;23.80;99.90;;;;;;4822716;29;20465;-75
2022/08/22 12:30:53;;;;;;;11.25;4.65;;;23.70;99.90;;;;;;4821506;29;19927;-74
2022/08/22 12:34:00;;;;;;;9.38;5.90;;;24.00;99.90;;;;;;4821096;29;20477;-74
2022/08/22 12:36:40;;;;;;;9.73;5.68;;;24.20;99.90;;;;;;4801256;29;20046;-75
2022/08/22 12:39:34;;;;;;;9.55;5.65;;;24.10;99.90;;;;;;4793203;29;20055;-74
2022/08/22 12:42:06;;;;;;;9.45;4.22;;;24.20;99.90;;;;;;4813834;29;20045;-74
2022/08/22 12:45:01;;;;;;;8.35;5.90;;;24.40;99.90;;;;;;4856808;29;20492;-75
2022/08/22 12:47:47;;;;;;;12.82;7.85;;;24.40;99.90;;;;;;4845519;29;20041;-74
2022/08/22 12:50:19;;;;;;;11.13;5.90;;;24.50;99.90;;;;;;4856786;29;20497;-75
2022/08/22 12:53:25;;;;;;;14.45;6.60;;;24.40;99.90;;;;;;4857829;29;20029;-75
2022/08/22 12:56:22;;;;;;;10.13;6.60;;;24.20;99.90;;;;;;4856983;29;20042;-75
2022/08/22 12:58:50;;;;;;;10.93;6.72;;;24.20;99.90;;;;;;4856910;29;20046;-74
2022/08/22 13:01:17;;;;;;;14.25;9.23;;;24.30;99.90;;;;;;4861893;29;20128;-74
2022/08/22 13:03:47;;;;;;;9.88;5.82;;;24.20;99.90;;;;;;4876553;29;20127;-73
2022/08/22 13:06:34;;;;;;;9.93;5.70;;;23.70;99.90;;;;;;4875570;29;20439;-74
2022/08/22 13:09:08;;;;;;;8.65;5.18;;;23.60;99.90;;;;;;4876057;29;20451;-75
2022/08/22 13:11:40;;;;;;;5.97;3.67;;;23.80;99.90;;;;;;4899503;29;20050;-74
2022/08/22 13:14:07;;;;;;;7.70;4.20;;;23.80;99.90;;;;;;4954319;28;20038;-74
2022/08/22 13:16:41;;;;;;;6.20;3.10;;;23.80;99.90;;;;;;4953916;28;20034;-73
2022/08/22 13:19:15;;;;;;;3.13;2.50;;;23.90;99.90;;;;;;4953801;28;20364;-64
2022/08/22 13:21:51;;;;;;;2.67;2.17;;;24.00;99.90;;;;;;4966371;28;20041;-77
2022/08/22 13:24:29;;;;;;;4.35;2.72;;;23.80;99.90;;;;;;4956064;28;20429;-76
2022/08/22 13:27:23;;;;;;;2.95;2.22;;;23.80;99.90;;;;;;4950553;29;20039;-76
2022/08/22 13:29:56;;;;;;;6.10;2.17;;;23.80;99.90;;;;;;4954032;28;20173;-77
2022/08/22 13:32:44;;;;;;;4.75;2.08;;;23.70;99.90;;;;;;4954244;28;20027;-74
2022/08/22 13:35:21;;;;;;;7.22;2.55;;;23.70;99.90;;;;;;4948865;29;20086;-75
2022/08/22 13:37:51;;;;;;;7.43;2.22;;;23.70;99.90;;;;;;4946545;28;20055;-77
2022/08/22 13:40:44;;;;;;;3.47;2.00;;;23.80;99.90;;;;;;4949205;28;20121;-76
2022/08/22 13:43:16;;;;;;;5.03;2.25;;;23.90;99.90;;;;;;4949479;28;20047;-72
2022/08/22 13:45:50;;;;;;;;;;;24.00;99.90;;;;;;4950379;28;20061;-76
2022/08/22 13:48:20;;;;;;;4.53;2.08;;;23.80;99.90;;;;;;4952435;28;19910;-70
2022/08/22 13:51:10;;;;;;;3.40;1.80;;;23.60;99.90;;;;;;4951952;28;20102;-71
2022/08/22 13:53:45;;;;;;;4.90;2.65;;;23.60;99.90;;;;;;4953753;28;20167;-64
2022/08/22 13:56:19;;;;;;;5.22;3.25;;;23.80;99.90;;;;;;4953482;28;20040;-77
2022/08/22 13:58:52;;;;;;;4.10;2.72;;;23.70;99.90;;;;;;4949775;28;20610;-71
2022/08/22 14:01:42;;;;;;;3.83;2.58;;;23.70;99.90;;;;;;4952667;28;20559;-74
2022/08/22 14:04:21;;;;;;;4.45;2.70;;;23.70;99.90;;;;;;4953490;28;20035;-71
2022/08/22 14:06:53;;;;;;;5.03;3.25;;;23.60;99.90;;;;;;4954042;28;20031;-73